sensor_id;sensor_type;location;lat;lon;timestamp;P1;durP1;ratioP1;P2;durP2;ratioP2
80199;SDS011;69520;44.900;-0.764;2023-07-24T00:01:59;8.27;;;3.90;;
80199;SDS011;69520;44.900;-0.764;2023-07-24T00:04:25;9.63;;;3.70;;
80199;SDS011;69520;44.900;-0.764;2023-07-24T00:06:51;8.40;;;3.50;;
80199;SDS011;69520;44.900;-0.764;2023-07-24T00:09:17;10.27;;;3.97;;
80199;SDS011;69520;44.900;-0.764;2023-07-24T00:11:43;8.50;;;3.50;;
80199;SDS011;69520;44.900;-0.764;2023-07-24T00:14:09;10.70;;;3.80;;
80199;SDS011;69520;44.900;-0.764;2023-07-24T00:16:35;9.45;;;3.67;;
80199;SDS011;69520;44.900;-0.764;2023-07-24T00:19:01;9.75;;;3.47;;
80199;SDS011;69520;44.900;-0.764;2023-07-24T00:21:27;9.98;;;3.22;;
80199;SDS011;69520;44.900;-0.764;2023-07-24T00:23:53;7.90;;;3.17;;
80199;SDS011;69520;44.900;-0.764;2023-07-24T00:26:19;10.13;;;3.50;;
80199;SDS011;69520;44.900;-0.764;2023-07-24T00:28:44;10.77;;;3.60;;
80199;SDS011;69520;44.900;-0.764;2023-07-24T00:31:10;9.23;;;3.35;;
80199;SDS011;69520;44.900;-0.764;2023-07-24T00:33:36;10.40;;;3.60;;
80199;SDS011;69520;44.900;-0.764;2023-07-24T00:36:02;10.05;;;3.78;;
80199;SDS011;69520;44.900;-0.764;2023-07-24T00:38:28;9.77;;;3.50;;
80199;SDS011;69520;44.900;-0.764;2023-07-24T00:40:54;9.18;;;3.30;;
80199;SDS011;69520;44.900;-0.764;2023-07-24T00:43:20;8.27;;;3.20;;
80199;SDS011;69520;44.900;-0.764;2023-07-24T00:45:46;10.30;;;3.65;;
80199;SDS011;69520;44.900;-0.764;2023-07-24T00:48:13;9.48;;;3.33;;
80199;SDS011;69520;44.900;-0.764;2023-07-24T00:50:40;9.00;;;3.37;;
80199;SDS011;69520;44.900;-0.764;2023-07-24T00:53:07;11.60;;;3.53;;
80199;SDS011;69520;44.900;-0.764;2023-07-24T00:55:33;9.98;;;3.47;;
80199;SDS011;69520;44.900;-0.764;2023-07-24T00:57:59;9.10;;;3.42;;
80199;SDS011;69520;44.900;-0.764;2023-07-24T01:00:26;9.65;;;3.40;;
80199;SDS011;69520;44.900;-0.764;2023-07-24T01:02:52;10.43;;;3.60;;
80199;SDS011;69520;44.900;-0.764;2023-07-24T01:05:19;11.98;;;3.47;;
80199;SDS011;69520;44.900;-0.764;2023-07-24T01:07:45;9.50;;;3.83;;
80199;SDS011;69520;44.900;-0.764;2023-07-24T01:10:11;11.25;;;3.95;;
80199;SDS011;69520;44.900;-0.764;2023-07-24T01:12:50;9.80;;;3.63;;
80199;SDS011;69520;44.900;-0.764;2023-07-24T01:15:22;8.63;;;3.03;;
80199;SDS011;69520;44.900;-0.764;2023-07-24T01:17:56;10.18;;;3.58;;
80199;SDS011;69520;44.900;-0.764;2023-07-24T01:20:22;11.50;;;3.72;;
80199;SDS011;69520;44.900;-0.764;2023-07-24T01:22:57;7.97;;;3.38;;
80199;SDS011;69520;44.900;-0.764;2023-07-24T01:25:35;10.05;;;3.63;;
80199;SDS011;69520;44.900;-0.764;2023-07-24T01:28:05;9.40;;;3.77;;
80199;SDS011;69520;44.900;-0.764;2023-07-24T01:30:32;11.00;;;3.50;;
80199;SDS011;69520;44.900;-0.764;2023-07-24T01:32:58;9.70;;;3.92;;
80199;SDS011;69520;44.900;-0.764;2023-07-24T01:35:24;8.50;;;3.60;;
80199;SDS011;69520;44.900;-0.764;2023-07-24T01:37:50;9.18;;;3.63;;
80199;SDS011;69520;44.900;-0.764;2023-07-24T01:40:16;9.77;;;3.93;;
80199;SDS011;69520;44.900;-0.764;2023-07-24T01:42:43;9.02;;;3.63;;
80199;SDS011;69520;44.900;-0.764;2023-07-24T01:45:09;8.82;;;3.75;;
80199;SDS011;69520;44.900;-0.764;2023-07-24T01:47:36;7.55;;;3.08;;
80199;SDS011;69520;44.900;-0.764;2023-07-24T01:50:02;10.88;;;3.78;;
80199;SDS011;69520;44.900;-0.764;2023-07-24T01:52:28;11.17;;;3.57;;
80199;SDS011;69520;44.900;-0.764;2023-07-24T01:54:54;9.25;;;3.08;;
80199;SDS011;69520;44.900;-0.764;2023-07-24T01:57:20;9.95;;;3.40;;
80199;SDS011;69520;44.900;-0.764;2023-07-24T01:59:46;8.95;;;3.50;;
80199;SDS011;69520;44.900;-0.764;2023-07-24T02:02:13;8.00;;;3.22;;
80199;SDS011;69520;44.900;-0.764;2023-07-24T02:04:39;9.83;;;3.30;;
80199;SDS011;69520;44.900;-0.764;2023-07-24T02:07:06;10.05;;;3.45;;
80199;SDS011;69520;44.900;-0.764;2023-07-24T02:09:32;9.02;;;3.30;;
80199;SDS011;69520;44.900;-0.764;2023-07-24T02:11:58;9.57;;;2.90;;
80199;SDS011;69520;44.900;-0.764;2023-07-24T02:14:24;9.15;;;3.45;;
80199;SDS011;69520;44.900;-0.764;2023-07-24T02:16:51;10.17;;;3.50;;
80199;SDS011;69520;44.900;-0.764;2023-07-24T02:19:17;10.55;;;3.53;;
80199;SDS011;69520;44.900;-0.764;2023-07-24T02:21:43;7.97;;;3.38;;
80199;SDS011;69520;44.900;-0.764;2023-07-24T02:24:09;11.82;;;3.55;;
80199;SDS011;69520;44.900;-0.764;2023-07-24T02:26:35;9.48;;;3.45;;
80199;SDS011;69520;44.900;-0.764;2023-07-24T02:29:02;9.40;;;3.50;;
80199;SDS011;69520;44.900;-0.764;2023-07-24T02:31:28;7.78;;;3.10;;
80199;SDS011;69520;44.900;-0.764;2023-07-24T02:33:54;10.45;;;3.15;;
80199;SDS011;69520;44.900;-0.764;2023-07-24T02:36:20;9.25;;;3.47;;
80199;SDS011;69520;44.900;-0.764;2023-07-24T02:38:46;9.77;;;3.10;;
80199;SDS011;69520;44.900;-0.764;2023-07-24T02:41:12;8.53;;;3.20;;
80199;SDS011;69520;44.900;-0.764;2023-07-24T02:43:38;9.65;;;3.35;;
80199;SDS011;69520;44.900;-0.764;2023-07-24T02:46:04;10.13;;;3.30;;
80199;SDS011;69520;44.900;-0.764;2023-07-24T02:48:29;8.60;;;3.00;;
80199;SDS011;69520;44.900;-0.764;2023-07-24T02:50:55;8.30;;;3.17;;
80199;SDS011;69520;44.900;-0.764;2023-07-24T02:53:21;10.37;;;3.27;;
80199;SDS011;69520;44.900;-0.764;2023-07-24T02:55:47;9.07;;;3.20;;
80199;SDS011;69520;44.900;-0.764;2023-07-24T02:58:14;9.07;;;3.10;;
80199;SDS011;69520;44.900;-0.764;2023-07-24T03:00:40;9.15;;;3.20;;
80199;SDS011;69520;44.900;-0.764;2023-07-24T03:03:06;9.95;;;3.00;;
80199;SDS011;69520;44.900;-0.764;2023-07-24T03:05:35;10.20;;;3.30;;
80199;SDS011;69520;44.900;-0.764;2023-07-24T03:08:01;9.02;;;3.40;;
80199;SDS011;69520;44.900;-0.764;2023-07-24T03:10:27;9.60;;;3.17;;
80199;SDS011;69520;44.900;-0.764;2023-07-24T03:12:53;8.65;;;3.03;;
80199;SDS011;69520;44.900;-0.764;2023-07-24T03:15:19;10.27;;;3.40;;
80199;SDS011;69520;44.900;-0.764;2023-07-24T03:17:45;9.97;;;2.93;;
80199;SDS011;69520;44.900;-0.764;2023-07-24T03:20:13;9.32;;;3.20;;
80199;SDS011;69520;44.900;-0.764;2023-07-24T03:22:43;10.68;;;3.17;;
80199;SDS011;69520;44.900;-0.764;2023-07-24T03:25:09;8.80;;;2.90;;
80199;SDS011;69520;44.900;-0.764;2023-07-24T03:27:35;9.45;;;3.28;;
80199;SDS011;69520;44.900;-0.764;2023-07-24T03:30:02;8.93;;;2.63;;
80199;SDS011;69520;44.900;-0.764;2023-07-24T03:32:28;8.38;;;2.63;;
80199;SDS011;69520;44.900;-0.764;2023-07-24T03:34:54;9.05;;;3.15;;
80199;SDS011;69520;44.900;-0.764;2023-07-24T03:37:20;9.40;;;3.08;;
80199;SDS011;69520;44.900;-0.764;2023-07-24T03:39:46;10.88;;;3.28;;
80199;SDS011;69520;44.900;-0.764;2023-07-24T03:42:23;8.27;;;2.83;;
80199;SDS011;69520;44.900;-0.764;2023-07-24T03:44:50;9.65;;;3.05;;
80199;SDS011;69520;44.900;-0.764;2023-07-24T03:47:16;9.13;;;3.25;;
80199;SDS011;69520;44.900;-0.764;2023-07-24T03:49:42;8.13;;;2.60;;
80199;SDS011;69520;44.900;-0.764;2023-07-24T03:52:08;9.35;;;3.22;;
80199;SDS011;69520;44.900;-0.764;2023-07-24T03:54:34;8.97;;;2.77;;
80199;SDS011;69520;44.900;-0.764;2023-07-24T03:57:00;9.23;;;2.78;;
80199;SDS011;69520;44.900;-0.764;2023-07-24T03:59:26;10.18;;;3.00;;
80199;SDS011;69520;44.900;-0.764;2023-07-24T04:01:52;8.98;;;2.88;;
80199;SDS011;69520;44.900;-0.764;2023-07-24T04:04:18;8.63;;;2.70;;
80199;SDS011;69520;44.900;-0.764;2023-07-24T04:06:45;8.33;;;2.40;;
80199;SDS011;69520;44.900;-0.764;2023-07-24T04:09:11;9.40;;;2.90;;
80199;SDS011;69520;44.900;-0.764;2023-07-24T04:11:39;7.97;;;2.63;;
80199;SDS011;69520;44.900;-0.764;2023-07-24T04:14:05;8.27;;;2.47;;
80199;SDS011;69520;44.900;-0.764;2023-07-24T04:16:31;7.50;;;2.40;;
80199;SDS011;69520;44.900;-0.764;2023-07-24T04:18:57;7.63;;;2.03;;
80199;SDS011;69520;44.900;-0.764;2023-07-24T04:21:23;8.25;;;2.50;;
80199;SDS011;69520;44.900;-0.764;2023-07-24T04:23:49;7.93;;;2.00;;
80199;SDS011;69520;44.900;-0.764;2023-07-24T04:26:15;7.57;;;2.03;;
80199;SDS011;69520;44.900;-0.764;2023-07-24T04:28:41;9.35;;;2.35;;
80199;SDS011;69520;44.900;-0.764;2023-07-24T04:31:07;8.90;;;2.00;;
80199;SDS011;69520;44.900;-0.764;2023-07-24T04:33:33;7.45;;;2.10;;
80199;SDS011;69520;44.900;-0.764;2023-07-24T04:35:59;8.00;;;2.25;;
80199;SDS011;69520;44.900;-0.764;2023-07-24T04:38:25;6.95;;;2.35;;
80199;SDS011;69520;44.900;-0.764;2023-07-24T04:40:52;8.77;;;2.20;;
80199;SDS011;69520;44.900;-0.764;2023-07-24T04:43:18;5.60;;;1.73;;
80199;SDS011;69520;44.900;-0.764;2023-07-24T04:45:44;7.05;;;1.70;;
80199;SDS011;69520;44.900;-0.764;2023-07-24T04:48:10;5.50;;;1.35;;
80199;SDS011;69520;44.900;-0.764;2023-07-24T04:50:36;7.50;;;1.40;;
80199;SDS011;69520;44.900;-0.764;2023-07-24T04:53:02;7.60;;;1.60;;
80199;SDS011;69520;44.900;-0.764;2023-07-24T04:55:28;7.23;;;1.50;;
80199;SDS011;69520;44.900;-0.764;2023-07-24T04:57:54;10.95;;;1.92;;
80199;SDS011;69520;44.900;-0.764;2023-07-24T05:00:19;7.72;;;2.15;;
80199;SDS011;69520;44.900;-0.764;2023-07-24T05:02:45;5.63;;;1.60;;
80199;SDS011;69520;44.900;-0.764;2023-07-24T05:05:12;7.70;;;1.40;;
80199;SDS011;69520;44.900;-0.764;2023-07-24T05:07:38;6.23;;;1.00;;
80199;SDS011;69520;44.900;-0.764;2023-07-24T05:10:04;5.63;;;0.90;;
80199;SDS011;69520;44.900;-0.764;2023-07-24T05:12:30;4.85;;;0.80;;
80199;SDS011;69520;44.900;-0.764;2023-07-24T05:14:56;5.00;;;1.00;;
80199;SDS011;69520;44.900;-0.764;2023-07-24T05:17:22;4.88;;;0.90;;
80199;SDS011;69520;44.900;-0.764;2023-07-24T05:19:48;5.97;;;0.80;;
80199;SDS011;69520;44.900;-0.764;2023-07-24T05:22:14;6.63;;;1.27;;
80199;SDS011;69520;44.900;-0.764;2023-07-24T05:24:40;5.18;;;0.85;;
80199;SDS011;69520;44.900;-0.764;2023-07-24T05:27:06;7.15;;;0.88;;
80199;SDS011;69520;44.900;-0.764;2023-07-24T05:29:32;6.50;;;1.00;;
80199;SDS011;69520;44.900;-0.764;2023-07-24T05:31:58;4.23;;;0.80;;
80199;SDS011;69520;44.900;-0.764;2023-07-24T05:34:25;4.57;;;0.70;;
80199;SDS011;69520;44.900;-0.764;2023-07-24T05:36:51;6.63;;;0.63;;
80199;SDS011;69520;44.900;-0.764;2023-07-24T05:39:17;6.25;;;0.70;;
80199;SDS011;69520;44.900;-0.764;2023-07-24T05:41:44;5.03;;;0.80;;
80199;SDS011;69520;44.900;-0.764;2023-07-24T05:44:10;5.63;;;1.00;;
80199;SDS011;69520;44.900;-0.764;2023-07-24T05:46:36;6.75;;;0.80;;
80199;SDS011;69520;44.900;-0.764;2023-07-24T05:49:02;7.03;;;0.90;;
80199;SDS011;69520;44.900;-0.764;2023-07-24T05:51:28;7.10;;;1.15;;
80199;SDS011;69520;44.900;-0.764;2023-07-24T05:53:55;6.60;;;1.00;;
80199;SDS011;69520;44.900;-0.764;2023-07-24T05:56:21;5.50;;;0.80;;
80199;SDS011;69520;44.900;-0.764;2023-07-24T05:58:47;5.95;;;0.80;;
80199;SDS011;69520;44.900;-0.764;2023-07-24T06:01:13;5.60;;;1.05;;
80199;SDS011;69520;44.900;-0.764;2023-07-24T06:03:39;5.40;;;1.10;;
80199;SDS011;69520;44.900;-0.764;2023-07-24T06:06:05;6.07;;;1.00;;
80199;SDS011;69520;44.900;-0.764;2023-07-24T06:08:31;6.27;;;0.90;;
80199;SDS011;69520;44.900;-0.764;2023-07-24T06:10:57;5.25;;;0.90;;
80199;SDS011;69520;44.900;-0.764;2023-07-24T06:13:23;5.18;;;1.00;;
80199;SDS011;69520;44.900;-0.764;2023-07-24T06:15:50;4.70;;;0.88;;
80199;SDS011;69520;44.900;-0.764;2023-07-24T06:18:16;5.82;;;1.00;;
80199;SDS011;69520;44.900;-0.764;2023-07-24T06:20:42;7.43;;;0.90;;
80199;SDS011;69520;44.900;-0.764;2023-07-24T06:23:08;6.93;;;1.20;;
80199;SDS011;69520;44.900;-0.764;2023-07-24T06:25:34;10.07;;;1.40;;
80199;SDS011;69520;44.900;-0.764;2023-07-24T06:28:00;8.80;;;1.35;;
80199;SDS011;69520;44.900;-0.764;2023-07-24T06:30:26;7.45;;;1.55;;
80199;SDS011;69520;44.900;-0.764;2023-07-24T06:32:52;6.93;;;1.33;;
80199;SDS011;69520;44.900;-0.764;2023-07-24T06:35:18;7.55;;;1.15;;
80199;SDS011;69520;44.900;-0.764;2023-07-24T06:37:44;7.20;;;1.10;;
80199;SDS011;69520;44.900;-0.764;2023-07-24T06:40:10;7.00;;;1.30;;
80199;SDS011;69520;44.900;-0.764;2023-07-24T06:42:36;7.07;;;1.60;;
80199;SDS011;69520;44.900;-0.764;2023-07-24T06:45:02;6.03;;;1.30;;
80199;SDS011;69520;44.900;-0.764;2023-07-24T06:47:28;5.95;;;1.58;;
80199;SDS011;69520;44.900;-0.764;2023-07-24T06:49:54;7.10;;;1.50;;
80199;SDS011;69520;44.900;-0.764;2023-07-24T06:52:20;6.50;;;1.40;;
80199;SDS011;69520;44.900;-0.764;2023-07-24T06:54:46;6.45;;;1.40;;
80199;SDS011;69520;44.900;-0.764;2023-07-24T06:57:12;7.63;;;1.40;;
80199;SDS011;69520;44.900;-0.764;2023-07-24T06:59:38;5.38;;;1.00;;
80199;SDS011;69520;44.900;-0.764;2023-07-24T07:02:05;6.28;;;1.63;;
80199;SDS011;69520;44.900;-0.764;2023-07-24T07:04:31;5.28;;;1.20;;
80199;SDS011;69520;44.900;-0.764;2023-07-24T07:06:57;6.10;;;1.27;;
80199;SDS011;69520;44.900;-0.764;2023-07-24T07:09:23;5.83;;;1.30;;
80199;SDS011;69520;44.900;-0.764;2023-07-24T07:11:49;7.25;;;1.15;;
80199;SDS011;69520;44.900;-0.764;2023-07-24T07:14:15;6.95;;;1.30;;
80199;SDS011;69520;44.900;-0.764;2023-07-24T07:16:41;5.43;;;1.10;;
80199;SDS011;69520;44.900;-0.764;2023-07-24T07:19:07;8.15;;;1.40;;
80199;SDS011;69520;44.900;-0.764;2023-07-24T07:21:34;6.07;;;1.63;;
80199;SDS011;69520;44.900;-0.764;2023-07-24T07:24:00;5.40;;;1.10;;
80199;SDS011;69520;44.900;-0.764;2023-07-24T07:26:26;7.47;;;2.08;;
80199;SDS011;69520;44.900;-0.764;2023-07-24T07:28:54;5.70;;;1.30;;
80199;SDS011;69520;44.900;-0.764;2023-07-24T07:31:20;8.18;;;1.95;;
80199;SDS011;69520;44.900;-0.764;2023-07-24T07:33:46;5.63;;;1.10;;
80199;SDS011;69520;44.900;-0.764;2023-07-24T07:36:13;6.95;;;1.77;;
80199;SDS011;69520;44.900;-0.764;2023-07-24T07:38:39;8.35;;;1.45;;
80199;SDS011;69520;44.900;-0.764;2023-07-24T07:41:05;6.25;;;1.17;;
80199;SDS011;69520;44.900;-0.764;2023-07-24T07:43:32;5.38;;;1.20;;
80199;SDS011;69520;44.900;-0.764;2023-07-24T07:45:58;7.03;;;1.27;;
80199;SDS011;69520;44.900;-0.764;2023-07-24T07:48:24;6.47;;;1.30;;
80199;SDS011;69520;44.900;-0.764;2023-07-24T07:50:53;6.43;;;1.90;;
80199;SDS011;69520;44.900;-0.764;2023-07-24T07:53:19;6.50;;;1.60;;
80199;SDS011;69520;44.900;-0.764;2023-07-24T07:55:45;6.38;;;1.63;;
80199;SDS011;69520;44.900;-0.764;2023-07-24T07:58:11;7.67;;;1.57;;
80199;SDS011;69520;44.900;-0.764;2023-07-24T08:00:38;6.00;;;1.63;;
80199;SDS011;69520;44.900;-0.764;2023-07-24T08:03:04;6.53;;;1.20;;
80199;SDS011;69520;44.900;-0.764;2023-07-24T08:05:30;5.85;;;1.27;;
80199;SDS011;69520;44.900;-0.764;2023-07-24T08:07:59;8.00;;;1.50;;
80199;SDS011;69520;44.900;-0.764;2023-07-24T08:10:25;8.57;;;1.30;;
80199;SDS011;69520;44.900;-0.764;2023-07-24T08:12:51;7.20;;;1.45;;
80199;SDS011;69520;44.900;-0.764;2023-07-24T08:15:17;5.93;;;1.42;;
80199;SDS011;69520;44.900;-0.764;2023-07-24T08:17:43;8.80;;;1.65;;
80199;SDS011;69520;44.900;-0.764;2023-07-24T08:20:09;6.57;;;1.40;;
80199;SDS011;69520;44.900;-0.764;2023-07-24T08:22:35;6.73;;;1.57;;
80199;SDS011;69520;44.900;-0.764;2023-07-24T08:25:02;5.97;;;1.33;;
80199;SDS011;69520;44.900;-0.764;2023-07-24T08:27:28;7.15;;;1.70;;
80199;SDS011;69520;44.900;-0.764;2023-07-24T08:29:54;8.32;;;1.90;;
80199;SDS011;69520;44.900;-0.764;2023-07-24T08:32:20;6.22;;;1.40;;
80199;SDS011;69520;44.900;-0.764;2023-07-24T08:34:46;8.20;;;1.60;;
80199;SDS011;69520;44.900;-0.764;2023-07-24T08:37:12;7.88;;;1.55;;
80199;SDS011;69520;44.900;-0.764;2023-07-24T08:39:38;6.82;;;1.50;;
80199;SDS011;69520;44.900;-0.764;2023-07-24T08:42:08;8.85;;;1.60;;
80199;SDS011;69520;44.900;-0.764;2023-07-24T08:44:34;6.63;;;1.50;;
80199;SDS011;69520;44.900;-0.764;2023-07-24T08:47:00;7.47;;;1.90;;
80199;SDS011;69520;44.900;-0.764;2023-07-24T08:49:28;6.68;;;1.58;;
80199;SDS011;69520;44.900;-0.764;2023-07-24T08:51:55;7.30;;;1.67;;
80199;SDS011;69520;44.900;-0.764;2023-07-24T08:54:21;11.85;;;2.30;;
80199;SDS011;69520;44.900;-0.764;2023-07-24T08:56:50;8.32;;;1.85;;
80199;SDS011;69520;44.900;-0.764;2023-07-24T08:59:16;9.90;;;2.33;;
80199;SDS011;69520;44.900;-0.764;2023-07-24T09:01:43;7.93;;;1.90;;
80199;SDS011;69520;44.900;-0.764;2023-07-24T09:04:09;8.82;;;1.83;;
80199;SDS011;69520;44.900;-0.764;2023-07-24T09:06:35;8.73;;;2.15;;
80199;SDS011;69520;44.900;-0.764;2023-07-24T09:09:01;10.18;;;2.10;;
80199;SDS011;69520;44.900;-0.764;2023-07-24T09:11:28;7.00;;;2.03;;
80199;SDS011;69520;44.900;-0.764;2023-07-24T09:13:54;8.75;;;2.05;;
80199;SDS011;69520;44.900;-0.764;2023-07-24T09:16:23;9.00;;;1.95;;
80199;SDS011;69520;44.900;-0.764;2023-07-24T09:18:50;8.27;;;2.08;;
80199;SDS011;69520;44.900;-0.764;2023-07-24T09:21:26;11.05;;;1.90;;
80199;SDS011;69520;44.900;-0.764;2023-07-24T09:23:52;9.40;;;2.20;;
80199;SDS011;69520;44.900;-0.764;2023-07-24T09:26:18;11.10;;;2.35;;
80199;SDS011;69520;44.900;-0.764;2023-07-24T09:28:50;11.70;;;2.90;;
80199;SDS011;69520;44.900;-0.764;2023-07-24T09:31:17;8.95;;;2.20;;
80199;SDS011;69520;44.900;-0.764;2023-07-24T09:33:43;7.82;;;2.22;;
80199;SDS011;69520;44.900;-0.764;2023-07-24T09:36:09;7.73;;;2.20;;
80199;SDS011;69520;44.900;-0.764;2023-07-24T09:38:36;9.52;;;2.40;;
80199;SDS011;69520;44.900;-0.764;2023-07-24T09:41:02;7.93;;;2.00;;
80199;SDS011;69520;44.900;-0.764;2023-07-24T09:43:28;7.63;;;2.00;;
80199;SDS011;69520;44.900;-0.764;2023-07-24T09:45:55;9.25;;;1.80;;
80199;SDS011;69520;44.900;-0.764;2023-07-24T09:48:22;8.10;;;1.80;;
80199;SDS011;69520;44.900;-0.764;2023-07-24T09:50:49;7.35;;;1.83;;
80199;SDS011;69520;44.900;-0.764;2023-07-24T09:54:01;7.25;;;1.45;;
80199;SDS011;69520;44.900;-0.764;2023-07-24T09:56:02;7.15;;;1.48;;
80199;SDS011;69520;44.900;-0.764;2023-07-24T09:58:29;6.40;;;1.48;;
80199;SDS011;69520;44.900;-0.764;2023-07-24T10:00:57;6.90;;;1.50;;
80199;SDS011;69520;44.900;-0.764;2023-07-24T10:03:23;6.45;;;1.42;;
80199;SDS011;69520;44.900;-0.764;2023-07-24T10:05:49;7.22;;;1.33;;
80199;SDS011;69520;44.900;-0.764;2023-07-24T10:08:16;8.77;;;1.77;;
80199;SDS011;69520;44.900;-0.764;2023-07-24T10:10:42;7.15;;;1.40;;
80199;SDS011;69520;44.900;-0.764;2023-07-24T10:13:09;8.40;;;1.73;;
80199;SDS011;69520;44.900;-0.764;2023-07-24T10:15:39;5.95;;;1.40;;
80199;SDS011;69520;44.900;-0.764;2023-07-24T10:18:06;7.22;;;1.60;;
80199;SDS011;69520;44.900;-0.764;2023-07-24T10:20:35;7.28;;;1.40;;
80199;SDS011;69520;44.900;-0.764;2023-07-24T10:23:02;7.20;;;1.63;;
80199;SDS011;69520;44.900;-0.764;2023-07-24T10:25:29;7.70;;;1.57;;
80199;SDS011;69520;44.900;-0.764;2023-07-24T10:28:00;7.57;;;1.50;;
80199;SDS011;69520;44.900;-0.764;2023-07-24T10:30:29;7.47;;;1.30;;
80199;SDS011;69520;44.900;-0.764;2023-07-24T10:33:03;8.07;;;1.85;;
80199;SDS011;69520;44.900;-0.764;2023-07-24T10:35:36;5.97;;;1.50;;
80199;SDS011;69520;44.900;-0.764;2023-07-24T10:38:02;6.83;;;1.40;;
80199;SDS011;69520;44.900;-0.764;2023-07-24T10:40:28;9.20;;;1.63;;
80199;SDS011;69520;44.900;-0.764;2023-07-24T10:43:04;6.30;;;1.40;;
80199;SDS011;69520;44.900;-0.764;2023-07-24T10:48:05;6.40;;;1.65;;
80199;SDS011;69520;44.900;-0.764;2023-07-24T10:50:38;8.97;;;1.87;;
80199;SDS011;69520;44.900;-0.764;2023-07-24T10:53:04;8.05;;;2.13;;
80199;SDS011;69520;44.900;-0.764;2023-07-24T10:55:30;7.70;;;1.85;;
80199;SDS011;69520;44.900;-0.764;2023-07-24T10:57:56;6.32;;;1.58;;
80199;SDS011;69520;44.900;-0.764;2023-07-24T11:00:22;6.20;;;1.42;;
80199;SDS011;69520;44.900;-0.764;2023-07-24T11:02:49;7.23;;;1.60;;
80199;SDS011;69520;44.900;-0.764;2023-07-24T11:05:15;6.55;;;1.50;;
80199;SDS011;69520;44.900;-0.764;2023-07-24T11:07:42;11.23;;;1.90;;
80199;SDS011;69520;44.900;-0.764;2023-07-24T11:10:17;8.52;;;1.85;;
80199;SDS011;69520;44.900;-0.764;2023-07-24T11:12:44;7.95;;;1.60;;
80199;SDS011;69520;44.900;-0.764;2023-07-24T11:15:10;6.97;;;2.40;;
80199;SDS011;69520;44.900;-0.764;2023-07-24T11:17:37;7.50;;;1.65;;
80199;SDS011;69520;44.900;-0.764;2023-07-24T11:20:09;8.95;;;2.08;;
80199;SDS011;69520;44.900;-0.764;2023-07-24T11:22:37;7.07;;;1.88;;
80199;SDS011;69520;44.900;-0.764;2023-07-24T11:25:03;5.95;;;1.52;;
80199;SDS011;69520;44.900;-0.764;2023-07-24T11:27:31;7.70;;;1.73;;
80199;SDS011;69520;44.900;-0.764;2023-07-24T11:29:57;8.55;;;1.90;;
80199;SDS011;69520;44.900;-0.764;2023-07-24T11:32:23;6.28;;;1.48;;
80199;SDS011;69520;44.900;-0.764;2023-07-24T11:34:49;7.70;;;1.70;;
80199;SDS011;69520;44.900;-0.764;2023-07-24T11:37:16;7.93;;;1.60;;
80199;SDS011;69520;44.900;-0.764;2023-07-24T11:39:43;6.90;;;1.60;;
80199;SDS011;69520;44.900;-0.764;2023-07-24T11:42:20;5.75;;;1.33;;
80199;SDS011;69520;44.900;-0.764;2023-07-24T11:44:46;11.10;;;1.63;;
80199;SDS011;69520;44.900;-0.764;2023-07-24T11:47:12;6.80;;;1.63;;
80199;SDS011;69520;44.900;-0.764;2023-07-24T11:49:38;7.68;;;1.75;;
80199;SDS011;69520;44.900;-0.764;2023-07-24T11:52:10;6.83;;;1.57;;
80199;SDS011;69520;44.900;-0.764;2023-07-24T11:54:36;5.75;;;1.40;;
80199;SDS011;69520;44.900;-0.764;2023-07-24T11:57:02;6.75;;;1.58;;
80199;SDS011;69520;44.900;-0.764;2023-07-24T11:59:28;8.85;;;1.70;;
80199;SDS011;69520;44.900;-0.764;2023-07-24T12:02:02;9.32;;;1.60;;
80199;SDS011;69520;44.900;-0.764;2023-07-24T12:04:30;6.87;;;1.30;;
80199;SDS011;69520;44.900;-0.764;2023-07-24T12:06:56;6.85;;;1.58;;
80199;SDS011;69520;44.900;-0.764;2023-07-24T12:09:22;7.45;;;1.60;;
80199;SDS011;69520;44.900;-0.764;2023-07-24T12:11:48;7.60;;;1.90;;
80199;SDS011;69520;44.900;-0.764;2023-07-24T12:14:14;4.72;;;1.10;;
80199;SDS011;69520;44.900;-0.764;2023-07-24T12:16:40;5.10;;;1.17;;
80199;SDS011;69520;44.900;-0.764;2023-07-24T12:19:06;6.28;;;1.27;;
80199;SDS011;69520;44.900;-0.764;2023-07-24T12:21:32;6.90;;;1.33;;
80199;SDS011;69520;44.900;-0.764;2023-07-24T12:23:58;6.35;;;1.20;;
80199;SDS011;69520;44.900;-0.764;2023-07-24T12:26:24;5.85;;;1.10;;
80199;SDS011;69520;44.900;-0.764;2023-07-24T12:28:52;5.93;;;1.47;;
80199;SDS011;69520;44.900;-0.764;2023-07-24T12:31:18;5.47;;;1.13;;
80199;SDS011;69520;44.900;-0.764;2023-07-24T12:33:44;6.07;;;1.30;;
80199;SDS011;69520;44.900;-0.764;2023-07-24T12:36:10;6.05;;;1.35;;
80199;SDS011;69520;44.900;-0.764;2023-07-24T12:38:36;6.55;;;1.70;;
80199;SDS011;69520;44.900;-0.764;2023-07-24T12:41:05;5.47;;;1.27;;
80199;SDS011;69520;44.900;-0.764;2023-07-24T12:43:31;7.00;;;1.50;;
80199;SDS011;69520;44.900;-0.764;2023-07-24T12:45:57;5.60;;;1.30;;
80199;SDS011;69520;44.900;-0.764;2023-07-24T12:48:23;6.22;;;1.23;;
80199;SDS011;69520;44.900;-0.764;2023-07-24T12:50:49;7.22;;;1.50;;
80199;SDS011;69520;44.900;-0.764;2023-07-24T12:53:15;6.87;;;1.33;;
80199;SDS011;69520;44.900;-0.764;2023-07-24T12:55:41;7.15;;;1.42;;
80199;SDS011;69520;44.900;-0.764;2023-07-24T12:58:07;6.28;;;1.58;;
80199;SDS011;69520;44.900;-0.764;2023-07-24T13:00:33;5.93;;;1.65;;
80199;SDS011;69520;44.900;-0.764;2023-07-24T13:02:59;4.93;;;1.25;;
80199;SDS011;69520;44.900;-0.764;2023-07-24T13:05:25;5.90;;;1.40;;
80199;SDS011;69520;44.900;-0.764;2023-07-24T13:07:51;5.50;;;1.33;;
80199;SDS011;69520;44.900;-0.764;2023-07-24T13:10:17;6.63;;;1.50;;
80199;SDS011;69520;44.900;-0.764;2023-07-24T13:12:43;6.53;;;1.73;;
80199;SDS011;69520;44.900;-0.764;2023-07-24T13:15:09;6.50;;;1.85;;
80199;SDS011;69520;44.900;-0.764;2023-07-24T13:17:35;6.73;;;1.57;;
80199;SDS011;69520;44.900;-0.764;2023-07-24T13:20:02;7.15;;;2.15;;
80199;SDS011;69520;44.900;-0.764;2023-07-24T13:22:28;7.32;;;1.60;;
80199;SDS011;69520;44.900;-0.764;2023-07-24T13:24:54;6.07;;;1.67;;
80199;SDS011;69520;44.900;-0.764;2023-07-24T13:27:20;6.85;;;2.13;;
80199;SDS011;69520;44.900;-0.764;2023-07-24T13:29:46;6.47;;;1.43;;
80199;SDS011;69520;44.900;-0.764;2023-07-24T13:32:12;6.90;;;1.63;;
80199;SDS011;69520;44.900;-0.764;2023-07-24T13:34:38;5.72;;;1.60;;
80199;SDS011;69520;44.900;-0.764;2023-07-24T13:37:04;7.85;;;1.60;;
80199;SDS011;69520;44.900;-0.764;2023-07-24T13:39:30;5.80;;;1.40;;
80199;SDS011;69520;44.900;-0.764;2023-07-24T13:41:58;6.37;;;1.40;;
80199;SDS011;69520;44.900;-0.764;2023-07-24T13:44:24;7.25;;;1.70;;
80199;SDS011;69520;44.900;-0.764;2023-07-24T13:46:50;6.18;;;1.42;;
80199;SDS011;69520;44.900;-0.764;2023-07-24T13:49:16;6.72;;;1.50;;
80199;SDS011;69520;44.900;-0.764;2023-07-24T13:51:42;6.40;;;1.50;;
80199;SDS011;69520;44.900;-0.764;2023-07-24T13:54:09;7.23;;;1.63;;
80199;SDS011;69520;44.900;-0.764;2023-07-24T13:56:35;6.47;;;1.40;;
80199;SDS011;69520;44.900;-0.764;2023-07-24T13:59:01;7.47;;;1.48;;
80199;SDS011;69520;44.900;-0.764;2023-07-24T14:01:28;5.57;;;1.30;;
80199;SDS011;69520;44.900;-0.764;2023-07-24T14:03:54;6.70;;;1.60;;
80199;SDS011;69520;44.900;-0.764;2023-07-24T14:06:20;7.33;;;1.50;;
80199;SDS011;69520;44.900;-0.764;2023-07-24T14:08:46;5.40;;;1.42;;
80199;SDS011;69520;44.900;-0.764;2023-07-24T14:11:12;5.45;;;1.25;;
80199;SDS011;69520;44.900;-0.764;2023-07-24T14:13:38;6.32;;;1.50;;
80199;SDS011;69520;44.900;-0.764;2023-07-24T14:16:04;6.63;;;1.60;;
80199;SDS011;69520;44.900;-0.764;2023-07-24T14:18:30;5.83;;;1.40;;
80199;SDS011;69520;44.900;-0.764;2023-07-24T14:20:56;5.60;;;1.52;;
80199;SDS011;69520;44.900;-0.764;2023-07-24T14:23:24;6.70;;;1.20;;
80199;SDS011;69520;44.900;-0.764;2023-07-24T14:25:50;4.72;;;1.05;;
80199;SDS011;69520;44.900;-0.764;2023-07-24T14:28:16;6.53;;;1.60;;
80199;SDS011;69520;44.900;-0.764;2023-07-24T14:30:42;6.23;;;1.30;;
80199;SDS011;69520;44.900;-0.764;2023-07-24T14:33:08;6.18;;;1.02;;